Time;durP1;ratioP1;P1;durP2;ratioP2;P2;SDS_P1;SDS_P2;PMS_P1;PMS_P2;Temp;Humidity;BMP_temperature;BMP_pressure;BME280_temperature;BME280_humidity;BME280_pressure;Samples;Min_cycle;Max_cycle;Signal;HPM_P1;HPM_P2
2021/12/23 00:02:17;;;;;;;;;67.00;46.50;;;;;1.27;60.47;101235.75;4981109;28;45294;-47
2021/12/23 00:04:42;;;;;;;;;62.00;48.25;;;;;1.27;60.65;101230.56;4983090;28;45390;-49
2021/12/23 00:07:08;;;;;;;;;52.50;42.00;;;;;1.16;60.47;101211.22;4965817;28;45350;-48
2021/12/23 00:10:03;;;;;;;;;56.75;44.25;;;;;1.26;60.42;101229.69;4965513;28;45311;-49
2021/12/23 00:12:22;;;;;;;;;56.75;48.00;;;;;1.26;60.64;101229.69;4983072;28;45432;-50
2021/12/23 00:14:50;;;;;;;;;57.75;44.25;;;;;1.27;60.74;101230.56;4965625;28;47268;-57
2021/12/23 00:25:19;;;;;;;;;64.75;44.75;;;;;1.25;60.75;101220.16;4982598;28;45319;-49
2021/12/23 00:27:45;;;;;;;;;66.25;45.00;;;;;1.26;60.44;101213.28;4965573;28;45334;-47
2021/12/23 00:30:11;;;;;;;;;63.25;49.25;;;;;1.24;60.60;101205.47;4976295;28;45257;-48
2021/12/23 00:32:37;;;;;;;;;56.75;44.00;;;;;1.25;60.53;101202.03;4970350;28;45513;-47
2021/12/23 00:35:03;;;;;;;;;62.25;49.25;;;;;1.25;60.77;101196.00;4982709;28;46250;-47
2021/12/23 00:37:36;;;;;;;;;59.25;46.50;;;;;1.24;60.64;101205.47;4973949;28;45271;-47
2021/12/23 00:40:02;;;;;;;;;64.25;47.00;;;;;1.25;60.56;101204.63;4982413;28;45444;-49
2021/12/23 00:42:28;;;;;;;;;71.00;51.25;;;;;1.26;60.54;101203.81;4982996;28;45583;-48
2021/12/23 00:44:53;;;;;;;;;57.25;44.50;;;;;1.24;60.48;101200.28;4982514;28;46140;-45
2021/12/23 00:47:18;;;;;;;;;59.00;45.25;;;;;1.24;60.49;101200.28;4965367;28;45411;-47
2021/12/23 00:49:44;;;;;;;;;62.50;48.00;;;;;1.23;60.70;101187.28;4982608;28;45493;-46
2021/12/23 00:52:09;;;;;;;;;66.25;50.25;;;;;1.24;60.73;101189.91;4982953;28;45299;-49
2021/12/23 00:54:35;;;;;;;;;69.50;51.00;;;;;1.24;60.60;101184.75;4982011;28;45931;-46
2021/12/23 00:57:01;;;;;;;;;62.50;45.00;;;;;1.24;60.72;101184.75;4965018;28;45397;-47
2021/12/23 00:59:26;;;;;;;;;61.75;46.50;;;;;1.23;60.94;101187.28;4982542;28;45935;-48
2021/12/23 01:01:52;;;;;;;;;58.50;43.50;;;;;1.20;60.58;101182.03;4982843;28;45511;-47
2021/12/23 01:04:17;;;;;;;;;49.50;38.75;;;;;1.18;60.79;101176.78;4982145;28;46417;-47
2021/12/23 01:06:43;;;;;;;;;55.50;42.25;;;;;1.18;60.65;101181.97;4982547;28;45247;-46
2021/12/23 01:09:09;;;;;;;;;61.25;46.00;;;;;1.16;60.83;101178.47;4964611;28;45285;-47
2021/12/23 01:11:35;;;;;;;;;60.00;46.25;;;;;1.05;60.52;101156.53;4982474;28;45385;-47
2021/12/23 01:19:40;;;;;;;;;61.75;44.00;;;;;1.11;60.91;101151.56;4973902;28;45258;-47
2021/12/23 01:22:08;;;;;;;;;61.00;48.00;;;;;1.13;60.73;101158.53;4982269;28;45605;-48
2021/12/23 01:24:33;;;;;;;;;54.25;44.25;;;;;1.12;61.01;101150.72;4981688;28;45380;-50
2021/12/23 01:27:00;;;;;;;;;58.25;43.25;;;;;1.15;60.81;101157.72;4981985;28;45342;-47
2021/12/23 01:29:28;;;;;;;;;61.75;46.00;;;;;1.12;61.16;101153.31;4981688;28;45227;-47
2021/12/23 01:31:54;;;;;;;;;63.00;49.00;;;;;1.14;60.85;101154.22;4963644;28;45547;-47
2021/12/23 01:34:19;;;;;;;;;56.75;44.50;;;;;1.13;60.65;101155.94;4982200;28;46456;-49
2021/12/23 01:36:45;;;;;;;;;59.50;44.75;;;;;1.11;60.74;101152.41;4973397;28;45345;-49
2021/12/23 01:39:13;;;;;;;;;54.50;46.50;;;;;1.15;60.83;101153.41;4981888;28;45454;-46
2021/12/23 01:41:39;;;;;;;;;63.00;47.75;;;;;1.15;60.76;101149.94;4981711;28;45307;-49
2021/12/23 01:44:05;;;;;;;;;61.75;48.00;;;;;1.15;61.07;101158.56;4964445;28;47894;-46
2021/12/23 01:46:30;;;;;;;;;57.50;43.75;;;;;1.14;61.06;101156.81;4964145;28;45386;-48
2021/12/23 01:48:55;;;;;;;;;52.00;44.00;;;;;1.13;61.05;101149.88;4964619;28;45339;-47
2021/12/23 01:51:21;;;;;;;;;55.50;42.50;;;;;1.15;60.74;101148.22;4981652;28;45267;-46
2021/12/23 01:53:47;;;;;;;;;60.00;44.00;;;;;1.16;60.72;101138.72;4981381;28;45308;-48
2021/12/23 01:56:12;;;;;;;;;54.25;45.50;;;;;1.17;61.02;101141.38;4981546;28;45363;-50
2021/12/23 01:58:40;;;;;;;;;64.25;48.00;;;;;1.16;61.02;101144.81;4981943;28;45242;-50
2021/12/23 02:01:07;;;;;;;;;66.50;50.25;;;;;1.19;61.05;101142.28;4981454;28;45406;-48
2021/12/23 02:03:33;;;;;;;;;60.50;43.25;;;;;1.19;61.13;101134.53;4981473;28;46034;-50
2021/12/23 02:05:58;;;;;;;;;58.00;42.75;;;;;1.19;61.16;101123.31;4963861;28;45343;-49
2021/12/23 02:08:24;;;;;;;;;59.75;44.50;;;;;1.20;60.92;101127.66;4981441;28;45347;-47
2021/12/23 02:10:49;;;;;;;;;69.75;49.25;;;;;1.21;60.87;101119.03;4981290;28;45415;-49
2021/12/23 02:13:15;;;;;;;;;63.25;45.50;;;;;1.21;60.90;101114.75;4981373;28;46469;-48
2021/12/23 02:15:41;;;;;;;;;48.50;40.50;;;;;1.21;61.12;101124.22;4981257;28;45423;-50
2021/12/23 02:18:06;;;;;;;;;62.25;47.75;;;;;1.23;60.97;101125.16;4981594;28;45219;-49
2021/12/23 02:20:34;;;;;;;;;60.50;46.50;;;;;1.23;61.25;101115.69;4981147;28;45541;-48
2021/12/23 02:23:01;;;;;;;;;58.50;43.75;;;;;1.26;61.17;101120.94;4963723;28;46177;-47
2021/12/23 02:25:28;;;;;;;;;62.75;46.25;;;;;1.27;61.25;101117.53;4980624;28;45254;-47
2021/12/23 02:27:54;;;;;;;;;59.00;43.75;;;;;1.28;61.08;101114.09;4981269;28;45315;-49
2021/12/23 02:30:23;;;;;;;;;55.25;44.50;;;;;1.29;61.08;101118.44;4973605;28;45310;-49
2021/12/23 02:32:49;;;;;;;;;60.75;45.50;;;;;1.32;61.04;101112.50;4952669;28;45942;-46
2021/12/23 02:35:17;;;;;;;;;61.00;47.50;;;;;1.33;61.33;101115.94;4981226;28;45476;-48
2021/12/23 02:37:43;;;;;;;;;54.50;44.50;;;;;1.36;60.96;101113.44;4955025;28;45314;-49
2021/12/23 02:40:11;;;;;;;;;59.75;45.50;;;;;1.37;60.90;101110.03;4963015;28;45428;-48
2021/12/23 02:42:36;;;;;;;;;56.50;46.25;;;;;1.36;61.03;101100.47;4963597;28;47142;-48
2021/12/23 02:45:04;;;;;;;;;60.50;44.25;;;;;1.39;61.04;101104.03;4980831;28;45301;-48
2021/12/23 02:47:31;;;;;;;;;56.75;46.75;;;;;1.41;60.84;101098.91;4981146;28;45252;-46
2021/12/23 02:49:57;;;;;;;;;68.50;51.50;;;;;1.42;61.32;101093.78;4980682;28;45445;-49
2021/12/23 02:52:22;;;;;;;;;55.75;43.00;;;;;1.44;60.99;101096.41;4963240;28;46863;-50
2021/12/23 02:54:55;;;;;;;;;57.75;43.00;;;;;1.40;61.02;101081.63;4980294;28;45474;-49
2021/12/23 02:57:20;;;;;;;;;59.25;48.00;;;;;1.49;60.86;101094.84;4980831;28;45448;-46
2021/12/23 02:59:46;;;;;;;;;65.75;47.50;;;;;1.51;61.35;101090.59;4980599;28;45500;-48
2021/12/23 03:02:11;;;;;;;;;66.00;49.75;;;;;1.54;61.14;101097.56;4980684;28;46981;-49
2021/12/23 03:04:36;;;;;;;;;61.00;48.50;;;;;1.56;60.97;101090.69;4980513;28;45402;-48
2021/12/23 03:07:02;;;;;;;;;68.25;50.25;;;;;1.57;61.23;101084.69;4980708;28;45271;-47
2021/12/23 03:09:27;;;;;;;;;63.00;45.25;;;;;1.51;61.16;101071.56;4980122;28;45316;-48
2021/12/23 03:11:52;;;;;;;;;55.25;46.00;;;;;1.59;61.28;101089.06;4980640;28;45446;-49
2021/12/23 03:14:18;;;;;;;;;59.25;47.25;;;;;1.61;61.10;101083.94;4980445;28;45349;-48
2021/12/23 03:16:46;;;;;;;;;56.50;42.75;;;;;1.60;61.10;101087.38;4947201;28;45347;-48
2021/12/23 03:19:11;;;;;;;;;59.75;47.75;;;;;1.58;61.13;101079.53;4980442;28;45243;-50
2021/12/23 03:21:37;;;;;;;;;60.50;43.75;;;;;1.61;61.18;101084.81;4980423;28;46269;-49
2021/12/23 03:24:03;;;;;;;;;61.25;47.50;;;;;1.60;61.48;101080.47;4979808;28;45326;-49
2021/12/23 03:26:28;;;;;;;;;63.00;50.50;;;;;1.62;61.36;101084.00;4963111;28;45308;-48
2021/12/23 03:28:53;;;;;;;;;66.00;46.50;;;;;1.64;61.27;101075.41;4980229;28;45572;-47
2021/12/23 03:31:19;;;;;;;;;59.50;43.25;;;;;1.59;61.46;101070.94;4956858;28;46180;-50
2021/12/23 03:33:44;;;;;;;;;59.25;46.25;;;;;1.64;61.46;101071.06;4976542;28;45225;-46
2021/12/23 03:36:10;;;;;;;;;66.25;49.25;;;;;1.66;61.04;101058.16;4975472;28;45761;-47
2021/12/23 03:38:35;;;;;;;;;56.00;43.00;;;;;1.69;61.40;101066.03;4977548;28;45600;-47
2021/12/23 03:41:01;;;;;;;;;63.50;46.50;;;;;1.70;61.20;101057.41;4983539;28;45387;-49
2021/12/23 03:43:28;;;;;;;;;58.50;47.25;;;;;1.70;61.38;101058.28;4983610;28;45322;-49
2021/12/23 03:45:54;;;;;;;;;59.00;46.75;;;;;1.71;61.14;101049.69;4983863;28;45319;-49
2021/12/23 03:48:20;;;;;;;;;60.75;46.00;;;;;1.70;61.73;101047.03;4983857;28;45444;-46
2021/12/23 03:50:46;;;;;;;;;60.25;47.75;;;;;1.70;61.25;101044.44;4983393;28;46167;-48
2021/12/23 03:53:12;;;;;;;;;61.50;47.25;;;;;1.66;61.37;101040.03;4983278;28;45242;-48
2021/12/23 03:55:38;;;;;;;;;61.00;43.75;;;;;1.70;61.03;101041.84;4983676;28;45265;-48
2021/12/23 03:58:04;;;;;;;;;59.75;46.50;;;;;1.69;61.33;101038.41;4982197;28;45529;-48
2021/12/23 04:00:29;;;;;;;;;61.00;46.00;;;;;1.68;61.66;101036.63;4982238;28;46921;-47
2021/12/23 04:02:55;;;;;;;;;61.75;48.50;;;;;1.69;61.71;101035.81;4983295;28;45222;-48
2021/12/23 04:05:21;;;;;;;;;65.00;50.50;;;;;1.70;61.68;101031.47;4983523;28;45430;-47
2021/12/23 04:07:47;;;;;;;;;56.75;45.25;;;;;1.71;61.74;101022.88;4983259;28;45262;-49
2021/12/23 04:10:16;;;;;;;;;59.00;43.75;;;;;1.69;61.56;101024.56;4982921;28;45432;-48
2021/12/23 04:12:42;;;;;;;;;55.00;42.75;;;;;1.70;61.46;101019.44;4983242;28;45316;-49
2021/12/23 04:15:08;;;;;;;;;57.50;46.00;;;;;1.70;61.46;101023.72;4983327;28;45278;-50
2021/12/23 04:17:34;;;;;;;;;63.00;46.50;;;;;1.71;61.22;101021.19;4983110;28;45234;-46
2021/12/23 04:20:13;;;;;;;;;59.00;46.00;;;;;1.73;61.76;101010.84;4983113;28;45218;-50
2021/12/23 04:22:38;;;;;;;;;58.50;46.25;;;;;1.73;61.41;101016.03;4982985;28;45456;-51
2021/12/23 04:25:04;;;;;;;;;57.00;43.25;;;;;1.71;61.71;101003.03;4981543;28;45384;-46
2021/12/23 04:27:29;;;;;;;;;64.50;48.25;;;;;1.73;61.80;101003.94;4982770;28;45271;-50
2021/12/23 04:29:54;;;;;;;;;57.75;43.75;;;;;1.73;61.32;100993.56;4978223;28;45614;-48
2021/12/23 04:32:20;;;;;;;;;57.00;46.75;;;;;1.74;61.60;100999.66;4934484;28;45280;-50
2021/12/23 04:34:45;;;;;;;;;65.00;49.75;;;;;1.76;61.34;101000.56;4983080;28;45505;-50
2021/12/23 04:37:10;;;;;;;;;64.50;48.50;;;;;1.78;61.40;100993.69;4974491;28;45405;-46
2021/12/23 04:39:36;;;;;;;;;61.00;48.25;;;;;1.79;61.76;100993.75;4982441;28;46117;-47
2021/12/23 04:42:01;;;;;;;;;62.00;47.00;;;;;1.79;61.41;100992.88;4982786;28;45350;-50
2021/12/23 04:44:26;;;;;;;;;57.25;43.75;;;;;1.79;61.91;100988.56;4982822;28;45553;-46
2021/12/23 04:46:52;;;;;;;;;55.75;46.25;;;;;1.81;61.69;100996.38;4982595;28;45469;-50
2021/12/23 04:49:21;;;;;;;;;58.75;48.75;;;;;1.77;61.56;100994.53;4963950;28;48667;-49
2021/12/23 04:51:47;;;;;;;;;57.50;44.00;;;;;1.76;61.45;100990.19;4982479;28;45381;-48
2021/12/23 04:54:12;;;;;;;;;58.00;47.00;;;;;1.75;61.52;100980.69;4982681;28;45298;-51
2021/12/23 04:56:38;;;;;;;;;60.00;47.75;;;;;1.75;61.92;100983.28;4964978;28;45295;-47
2021/12/23 04:59:03;;;;;;;;;64.25;46.50;;;;;1.77;61.77;100985.06;4982657;28;45323;-50
2021/12/23 05:01:30;;;;;;;;;59.25;47.25;;;;;1.79;61.58;100983.38;4982400;28;45386;-48
2021/12/23 05:03:56;;;;;;;;;67.75;47.75;;;;;1.81;61.64;100977.34;4965358;28;45267;-48
2021/12/23 05:06:21;;;;;;;;;67.00;52.25;;;;;1.81;61.77;100979.94;4982309;28;45528;-50
2021/12/23 05:08:47;;;;;;;;;59.75;49.00;;;;;1.80;61.78;100973.91;4982159;28;45225;-50
2021/12/23 05:11:12;;;;;;;;;54.75;45.50;;;;;1.82;61.63;100981.72;4982324;28;45292;-51
2021/12/23 05:13:38;;;;;;;;;59.75;46.50;;;;;1.82;62.08;100979.13;4965064;28;45202;-50
2021/12/23 05:16:04;;;;;;;;;56.75;46.25;;;;;1.83;61.85;100973.97;4982108;28;45220;-50
2021/12/23 05:18:30;;;;;;;;;61.25;49.50;;;;;1.87;61.69;100977.50;4982356;28;45369;-49
2021/12/23 05:20:55;;;;;;;;;66.25;48.00;;;;;1.87;61.98;100975.78;4982073;28;45359;-50
2021/12/23 05:23:20;;;;;;;;;60.00;47.00;;;;;1.89;62.07;100974.13;4982324;28;45313;-47
2021/12/23 05:25:46;;;;;;;;;61.50;45.75;;;;;1.90;61.72;100968.09;4964473;28;45417;-46
2021/12/23 05:28:13;;;;;;;;;63.00;46.50;;;;;1.91;62.02;100975.03;4982115;28;45369;-46
2021/12/23 05:30:39;;;;;;;;;61.00;47.00;;;;;1.93;61.88;100973.34;4959099;28;45484;-50
2021/12/23 05:33:04;;;;;;;;;58.50;46.00;;;;;1.97;61.90;100963.06;4988418;28;45437;-46
2021/12/23 05:35:30;;;;;;;;;65.25;48.00;;;;;1.98;62.01;100954.47;4981884;28;45538;-46
2021/12/23 05:37:55;;;;;;;;;64.25;49.50;;;;;1.98;62.07;100952.75;4973091;28;46475;-48
2021/12/23 05:40:24;;;;;;;;;52.75;44.00;;;;;2.00;61.76;100951.06;4981382;28;45205;-50
2021/12/23 05:42:51;;;;;;;;;56.25;47.75;;;;;2.01;62.11;100946.75;4982050;28;45305;-51
2021/12/23 05:45:17;;;;;;;;;66.25;50.00;;;;;2.03;61.71;100942.50;4981607;28;45548;-48
2021/12/23 05:47:43;;;;;;;;;65.25;48.00;;;;;2.03;62.06;100935.56;4981864;28;47295;-47
2021/12/23 05:50:10;;;;;;;;;60.50;45.25;;;;;2.03;61.80;100948.53;4980305;28;45338;-48
2021/12/23 05:52:36;;;;;;;;;59.25;45.00;;;;;2.04;61.77;100936.47;4982161;28;45318;-49
2021/12/23 05:55:06;;;;;;;;;55.00;46.00;;;;;2.06;62.25;100942.53;4981324;28;45310;-48
2021/12/23 05:57:32;;;;;;;;;61.25;46.00;;;;;2.07;61.91;100931.34;4981833;28;45398;-50
2021/12/23 05:59:57;;;;;;;;;59.25;43.50;;;;;2.07;62.28;100931.34;4981120;28;45349;-47
2021/12/23 06:02:23;;;;;;;;;66.25;50.00;;;;;2.07;62.35;100936.53;4981801;28;45424;-46
2021/12/23 06:04:49;;;;;;;;;60.25;46.50;;;;;2.07;61.83;100936.53;4981422;28;45438;-47
2021/12/23 06:07:14;;;;;;;;;59.00;47.75;;;;;2.07;62.04;100941.72;4981542;28;45904;-47
2021/12/23 06:09:40;;;;;;;;;61.50;46.00;;;;;2.10;62.07;100942.66;4979817;28;45383;-46
2021/12/23 06:12:05;;;;;;;;;56.00;47.50;;;;;2.13;61.99;100941.84;4981723;28;45225;-47
2021/12/23 06:14:31;;;;;;;;;63.00;47.75;;;;;2.13;61.91;100928.00;4980095;28;45732;-49
2021/12/23 06:16:56;;;;;;;;;60.25;48.25;;;;;2.19;62.21;100943.69;4981311;28;46095;-50
2021/12/23 06:19:22;;;;;;;;;61.00;47.50;;;;;2.18;62.41;100929.88;4981282;28;45372;-49
2021/12/23 06:21:47;;;;;;;;;61.25;45.50;;;;;2.20;62.22;100932.50;4981475;28;45859;-45
2021/12/23 06:24:12;;;;;;;;;55.00;43.25;;;;;2.22;62.32;100936.88;4980795;28;45282;-47
2021/12/23 06:26:38;;;;;;;;;62.25;47.75;;;;;2.24;62.03;100932.59;4981277;28;46351;-50
2021/12/23 06:29:03;;;;;;;;;59.25;46.00;;;;;2.27;62.04;100926.63;4981153;28;45225;-47
2021/12/23 06:31:29;;;;;;;;;59.25;49.00;;;;;2.29;61.92;100927.53;4962448;28;45339;-47
2021/12/23 06:33:54;;;;;;;;;64.75;49.75;;;;;2.30;61.83;100921.47;4978961;28;45219;-49
2021/12/23 06:36:20;;;;;;;;;58.25;46.00;;;;;2.30;62.34;100926.66;4974762;28;45362;-49
2021/12/23 06:38:46;;;;;;;;;58.00;43.75;;;;;2.30;62.33;100918.88;4978476;28;45328;-47
2021/12/23 06:41:12;;;;;;;;;54.00;44.25;;;;;2.34;62.07;100920.72;4980030;28;45322;-48
2021/12/23 06:43:38;;;;;;;;;53.00;44.50;;;;;2.36;61.81;100928.53;4980832;28;45652;-45
2021/12/23 06:46:04;;;;;;;;;59.75;45.25;;;;;2.37;61.95;100925.97;4981069;28;45433;-45
2021/12/23 06:48:31;;;;;;;;;61.50;45.00;;;;;2.40;62.29;100930.34;4980862;28;45325;-46
2021/12/23 06:50:59;;;;;;;;;56.00;44.75;;;;;2.40;62.03;100935.53;4981181;28;45365;-48
2021/12/23 06:53:24;;;;;;;;;63.25;46.00;;;;;2.43;62.09;100931.31;4980546;28;45428;-45
2021/12/23 06:55:51;;;;;;;;;53.25;43.00;;;;;2.45;61.72;100926.13;4980682;28;45377;-47
2021/12/23 06:58:18;;;;;;;;;55.75;47.75;;;;;2.44;61.90;100921.81;4979369;28;45381;-48
2021/12/23 07:00:45;;;;;;;;;62.00;48.00;;;;;2.48;61.84;100921.03;4981031;28;45431;-49
2021/12/23 07:03:10;;;;;;;;;63.75;49.00;;;;;2.50;62.12;100927.13;4979431;28;45256;-48
2021/12/23 07:05:36;;;;;;;;;59.50;46.25;;;;;2.52;61.86;100933.22;4980575;28;45398;-45
2021/12/23 07:08:13;;;;;;;;;57.50;44.75;;;;;2.49;62.30;100925.38;4979170;28;46299;-47
2021/12/23 07:10:39;;;;;;;;;56.25;46.50;;;;;2.54;62.34;100936.75;4964837;28;45327;-46
2021/12/23 07:13:05;;;;;;;;;61.00;46.25;;;;;2.56;61.67;100931.56;4979734;28;45310;-47
2021/12/23 07:15:32;;;;;;;;;50.50;41.50;;;;;2.59;62.28;100929.03;4980477;28;46170;-47
2021/12/23 07:17:59;;;;;;;;;62.00;48.75;;;;;2.62;62.01;100938.59;4980450;28;45380;-47
2021/12/23 07:20:26;;;;;;;;;53.75;44.25;;;;;2.62;61.63;100931.72;4980649;28;45420;-49
2021/12/23 07:22:52;;;;;;;;;59.25;46.00;;;;;2.65;61.59;100936.09;4980435;28;45153;-49
2021/12/23 07:25:17;;;;;;;;;55.75;45.00;;;;;2.67;62.16;100944.78;4979956;28;45976;-48
2021/12/23 07:27:44;;;;;;;;;53.75;44.00;;;;;2.67;61.97;100942.19;4980249;28;45306;-46
2021/12/23 07:30:11;;;;;;;;;53.25;41.75;;;;;2.67;61.63;100944.78;4973571;28;45173;-50
2021/12/23 07:32:37;;;;;;;;;59.25;46.75;;;;;2.68;61.69;100943.94;4950470;28;45307;-50
2021/12/23 07:35:03;;;;;;;;;55.00;42.25;;;;;2.70;61.97;100950.03;4980335;28;45310;-51
2021/12/23 07:37:29;;;;;;;;;58.50;43.25;;;;;2.67;61.80;100944.78;4971627;28;45476;-51
2021/12/23 07:39:55;;;;;;;;;58.75;45.00;;;;;2.68;62.02;100943.94;4962418;28;45721;-47
2021/12/23 07:42:22;;;;;;;;;53.00;42.25;;;;;2.72;61.88;100949.22;4980236;28;45242;-47
2021/12/23 07:44:47;;;;;;;;;64.00;45.75;;;;;2.72;62.11;100946.63;4962469;28;46772;-50
2021/12/23 07:47:13;;;;;;;;;55.00;45.00;;;;;2.73;62.32;100944.91;4962590;28;45271;-47
2021/12/23 07:49:41;;;;;;;;;53.75;45.00;;;;;2.74;61.56;100957.03;4962764;28;45402;-46
2021/12/23 07:52:07;;;;;;;;;60.50;46.50;;;;;2.76;62.10;100955.38;4962694;28;45346;-48
2021/12/23 07:54:34;;;;;;;;;58.75;45.50;;;;;2.78;62.02;100961.47;4979654;28;45564;-49
2021/12/23 07:56:59;;;;;;;;;53.25;44.00;;;;;2.80;61.64;100958.91;4980302;28;45321;-47
2021/12/23 07:59:25;;;;;;;;;64.50;48.00;;;;;2.81;61.97;100956.34;4980062;28;45385;-51
2021/12/23 08:01:50;;;;;;;;;63.25;49.00;;;;;2.84;61.80;100948.59;4980023;28;45454;-48
2021/12/23 08:04:16;;;;;;;;;65.25;50.00;;;;;2.86;62.22;100951.25;4962263;28;47040;-49
2021/12/23 08:06:42;;;;;;;;;53.00;44.00;;;;;2.89;62.05;100951.28;4980106;28;45228;-47
2021/12/23 08:09:07;;;;;;;;;64.00;48.75;;;;;2.89;62.30;100959.09;4979696;28;45254;-47
2021/12/23 08:11:33;;;;;;;;;65.75;52.00;;;;;2.92;62.21;100956.56;4979955;28;45239;-49
2021/12/23 08:13:59;;;;;;;;;61.25;48.25;;;;;2.95;61.88;100960.94;4979730;28;45258;-48
2021/12/23 08:16:24;;;;;;;;;62.75;51.00;;;;;2.98;62.07;100956.69;4979880;28;45250;-50
2021/12/23 08:18:49;;;;;;;;;58.00;45.75;;;;;2.93;61.89;100943.63;4979981;28;45176;-48
2021/12/23 08:21:15;;;;;;;;;52.00;40.50;;;;;3.02;62.09;100957.59;4962373;28;45231;-47
2021/12/23 08:23:40;;;;;;;;;55.00;45.00;;;;;3.06;62.12;100955.13;4980688;28;45476;-46
2021/12/23 08:26:11;;;;;;;;;61.25;45.75;;;;;3.10;61.78;100953.47;4982957;28;45315;-47
2021/12/23 08:28:37;;;;;;;;;58.75;45.50;;;;;3.09;62.29;100952.59;4983262;28;45466;-51
2021/12/23 08:31:02;;;;;;;;;59.75;46.00;;;;;3.17;62.15;100944.94;4968952;28;45428;-47
2021/12/23 08:33:28;;;;;;;;;56.75;41.50;;;;;3.20;61.84;100951.91;4977004;28;45528;-49
2021/12/23 08:35:53;;;;;;;;;60.00;48.75;;;;;3.20;61.89;100945.00;4980302;28;45384;-47
2021/12/23 08:38:20;;;;;;;;;64.00;50.25;;;;;3.27;61.73;100952.91;4959673;28;45313;-47
2021/12/23 08:40:45;;;;;;;;;67.00;51.75;;;;;3.31;62.01;100944.31;4982742;28;45354;-49
2021/12/23 08:43:12;;;;;;;;;64.75;50.75;;;;;3.35;62.08;100947.00;4982770;28;46182;-47
2021/12/23 08:45:38;;;;;;;;;63.25;51.25;;;;;3.40;62.32;100945.38;4982980;28;45314;-49
2021/12/23 08:48:03;;;;;;;;;64.75;50.00;;;;;3.42;62.49;100940.19;4965299;28;45275;-46
2021/12/23 08:50:31;;;;;;;;;54.75;44.50;;;;;3.47;62.33;100935.97;4982644;28;45430;-49
2021/12/23 08:52:57;;;;;;;;;60.00;48.50;;;;;3.52;61.93;100933.44;4982335;28;47135;-47
2021/12/23 08:55:25;;;;;;;;;60.50;48.00;;;;;3.55;62.08;100939.56;4982678;28;45251;-45
2021/12/23 08:57:50;;;;;;;;;64.50;48.50;;;;;3.58;62.17;100930.97;4965179;28;45359;-49
2021/12/23 09:00:18;;;;;;;;;62.50;47.75;;;;;3.65;62.32;100931.94;4982557;28;45400;-50
2021/12/23 09:02:44;;;;;;;;;66.75;48.50;;;;;3.70;62.17;100938.13;4982407;28;45401;-47
2021/12/23 09:05:10;;;;;;;;;64.00;51.50;;;;;3.73;62.07;100932.94;4982401;28;45377;-47
2021/12/23 09:07:35;;;;;;;;;68.25;51.75;;;;;3.80;61.92;100927.00;4982543;28;45309;-48
2021/12/23 09:10:01;;;;;;;;;69.75;53.25;;;;;3.84;62.00;100920.16;4982135;28;45568;-48
2021/12/23 09:12:27;;;;;;;;;61.50;49.75;;;;;3.88;61.88;100920.19;4982401;28;45192;-47
2021/12/23 09:14:54;;;;;;;;;62.75;49.75;;;;;3.93;62.40;100920.28;4982361;28;45335;-49
2021/12/23 09:17:19;;;;;;;;;58.75;48.75;;;;;3.97;62.09;100923.81;4982372;28;45230;-49
2021/12/23 09:19:45;;;;;;;;;68.75;53.25;;;;;4.04;62.19;100938.66;4982417;28;45225;-49
2021/12/23 09:22:11;;;;;;;;;62.00;50.00;;;;;4.07;62.08;100928.28;4982063;28;46376;-48
2021/12/23 09:24:40;;;;;;;;;61.00;46.50;;;;;4.11;62.08;100937.03;4981944;28;45379;-50
2021/12/23 09:35:02;;;;;;;;;60.75;47.50;;;;;4.26;62.50;100944.19;4981322;28;45364;-49
2021/12/23 09:37:28;;;;;;;;;55.75;44.25;;;;;4.28;62.44;100938.16;4973447;28;45277;-50
2021/12/23 09:39:56;;;;;;;;;60.50;48.50;;;;;4.31;62.49;100943.38;4963964;28;45584;-49
2021/12/23 09:42:28;;;;;;;;;60.00;45.25;;;;;4.36;62.50;100943.47;4982062;28;47008;-49
2021/12/23 09:44:58;;;;;;;;;59.00;43.25;;;;;4.37;62.58;100930.47;4964246;28;45393;-47
2021/12/23 09:47:29;;;;;;;;;58.00;45.00;;;;;4.43;62.51;100939.22;4982066;28;45323;-47
2021/12/23 09:49:56;;;;;;;;;50.75;40.75;;;;;4.46;62.58;100939.28;4981862;28;45319;-48
2021/12/23 09:52:23;;;;;;;;;57.00;43.50;;;;;4.47;62.17;100939.28;4981842;28;45426;-48
2021/12/23 09:54:48;;;;;;;;;62.50;47.75;;;;;4.52;62.26;100936.75;4981306;28;45437;-46
2021/12/23 09:57:14;;;;;;;;;60.25;48.50;;;;;4.56;62.33;100939.41;4982083;28;45282;-48
2021/12/23 09:59:41;;;;;;;;;54.75;43.50;;;;;4.59;62.70;100927.31;4981596;28;45330;-47
2021/12/23 10:02:06;;;;;;;;;63.00;48.25;;;;;4.61;62.52;100930.81;4981709;28;47177;-46
2021/12/23 10:04:32;;;;;;;;;56.50;46.00;;;;;4.65;62.78;100924.78;4963874;28;45375;-46
2021/12/23 10:06:58;;;;;;;;;55.75;45.25;;;;;4.69;62.71;100921.34;4981743;28;45307;-48
2021/12/23 10:09:41;;;;;;;;;67.75;54.00;;;;;4.72;62.70;100921.41;4981002;28;45604;-47
2021/12/23 10:31:36;;;;;;;;;59.25;46.50;;;;;5.03;62.95;100891.41;4964785;28;45386;-50
2021/12/23 10:39:35;;;;;;;;;47.75;41.75;;;;;5.19;62.42;100882.03;4980732;28;45404;-47
2021/12/23 10:42:36;;;;;;;;;49.25;39.25;;;;;5.25;62.75;100889.00;4980970;28;45252;-49
2021/12/23 10:45:08;;;;;;;;;57.00;44.00;;;;;5.30;63.00;100876.91;4901445;29;45417;-48
2021/12/23 10:47:35;;;;;;;;;57.75;42.50;;;;;5.33;62.90;100874.34;4966938;28;45314;-47
2021/12/23 10:53:22;;;;;;;;;43.25;36.50;;;;;5.44;62.73;100864.00;4939355;28;45559;-48
2021/12/23 10:58:33;;;;;;;;;50.00;37.25;;;;;5.51;63.16;100855.38;4980757;28;45290;-46
2021/12/23 11:01:01;;;;;;;;;47.00;38.50;;;;;5.55;62.91;100853.66;4980729;28;45283;-50
2021/12/23 11:03:33;;;;;;;;;45.25;37.50;;;;;5.56;63.08;100838.88;4963298;28;45644;-47
2021/12/23 11:06:12;;;;;;;;;42.75;33.50;;;;;5.61;63.19;100847.63;4980518;28;47009;-50
2021/12/23 11:39:31;;;;;;;;;29.50;25.25;;;;;6.36;63.64;100805.50;4955766;28;45975;-46
2021/12/23 11:42:06;;;;;;;;;48.75;39.25;;;;;6.46;63.46;100806.41;4980118;28;45355;-47
2021/12/23 11:44:31;;;;;;;;;39.50;34.00;;;;;6.49;63.51;100796.84;4980372;28;45363;-49
2021/12/23 11:47:08;;;;;;;;;33.25;29.00;;;;;6.55;63.66;100784.69;4962550;28;45629;-48
2021/12/23 11:49:35;;;;;;;;;50.25;37.00;;;;;6.64;63.29;100796.03;4963637;28;46672;-49
2021/12/23 11:52:01;;;;;;;;;44.50;37.25;;;;;6.73;63.54;100796.91;4980108;28;45248;-49
2021/12/23 11:54:37;;;;;;;;;43.00;31.25;;;;;6.83;63.48;100817.84;4979937;28;45363;-47
2021/12/23 11:57:05;;;;;;;;;42.50;36.25;;;;;6.91;63.57;100798.72;4980105;28;45236;-48
2021/12/23 11:59:32;;;;;;;;;38.00;34.00;;;;;7.03;63.55;100797.84;4982450;28;45461;-48
2021/12/23 12:01:59;;;;;;;;;49.25;38.75;;;;;7.14;63.54;100783.94;4983510;28;45409;-46
2021/12/23 12:04:37;;;;;;;;;43.50;36.75;;;;;7.29;63.34;100795.25;4983444;28;45482;-49
2021/12/23 12:07:16;;;;;;;;;46.50;38.75;;;;;7.41;63.50;100794.38;4965919;28;46019;-46
2021/12/23 12:09:53;;;;;;;;;45.50;39.00;;;;;7.58;63.46;100784.78;4982767;28;47075;-49
2021/12/23 12:12:19;;;;;;;;;45.00;37.25;;;;;7.75;63.47;100789.13;4983195;28;45342;-50
2021/12/23 12:14:46;;;;;;;;;44.75;36.75;;;;;7.87;63.45;100789.09;4983623;28;45315;-47
2021/12/23 12:17:23;;;;;;;;;44.50;36.00;;;;;8.04;63.61;100789.06;4983100;28;45449;-48
2021/12/23 12:20:02;;;;;;;;;41.25;36.25;;;;;8.19;63.38;100793.38;4983111;28;46336;-46
2021/12/23 12:22:47;;;;;;;;;47.50;37.50;;;;;8.33;63.54;100781.97;4965456;28;45338;-51
2021/12/23 12:25:38;;;;;;;;;43.25;35.50;;;;;8.49;63.70;100772.31;4983008;28;45433;-48
2021/12/23 12:28:03;;;;;;;;;44.50;38.50;;;;;8.61;63.55;100769.66;4983194;28;45252;-47
2021/12/23 12:30:42;;;;;;;;;47.50;35.75;;;;;8.76;63.21;100766.91;4973526;28;46324;-46
2021/12/23 12:33:33;;;;;;;;;40.50;35.75;;;;;8.90;63.51;100764.22;4974476;28;45389;-46
2021/12/23 12:36:01;;;;;;;;;37.25;35.50;;;;;9.06;63.34;100751.00;4979555;28;45171;-47
2021/12/23 12:38:28;;;;;;;;;45.75;37.00;;;;;9.19;63.46;100743.91;4977486;28;45351;-49
2021/12/23 12:41:16;;;;;;;;;42.00;35.50;;;;;9.34;63.13;100738.53;4982681;28;46121;-48